Aviation Digital Data Service (ADDS)

Output produced by METARs form (1803 UTC 16 October 2021)
found at http://www.aviationweather.gov/metar/data/
 
Forecast for: RJOM (MATSUYAMA AIRPOR, JP)
Text: TAF RJOM 161705Z 1618/1800 35018KT 9999 FEW020 BKN040
Forecast period: 1800 UTC 16 October 2021 to 0000 UTC 18 October 2021
Forecast type: FROM: standard forecast or significant change
Winds: from the N (350 degrees) at 21 MPH (18 knots; 9.3 m/s)
Visibility: 6 or more miles (10+ km)
Ceiling: 4000 feet AGL
Clouds: few clouds at 2000 feet AGL
broken clouds at 4000 feet AGL
Weather: no significant weather forecast for this period